sensor_id;sensor_type;location;lat;lon;timestamp;pressure;altitude;pressure_sealevel;temperature
5571;BMP180;2808;51.240;6.794;2022-07-22T00:00:34;101637.00;;;18.20
5571;BMP180;2808;51.240;6.794;2022-07-22T00:03:02;101633.00;;;18.20
5571;BMP180;2808;51.240;6.794;2022-07-22T00:05:29;101632.00;;;18.10
5571;BMP180;2808;51.240;6.794;2022-07-22T00:07:57;101630.00;;;18.10
5571;BMP180;2808;51.240;6.794;2022-07-22T00:10:26;101633.00;;;18.10
5571;BMP180;2808;51.240;6.794;2022-07-22T00:12:53;101633.00;;;18.10
5571;BMP180;2808;51.240;6.794;2022-07-22T00:15:21;101630.00;;;18.10
5571;BMP180;2808;51.240;6.794;2022-07-22T00:17:49;101635.00;;;18.10
5571;BMP180;2808;51.240;6.794;2022-07-22T00:20:16;101630.00;;;18.10
5571;BMP180;2808;51.240;6.794;2022-07-22T00:22:45;101648.00;;;18.00
5571;BMP180;2808;51.240;6.794;2022-07-22T00:25:12;101637.00;;;17.90
5571;BMP180;2808;51.240;6.794;2022-07-22T00:27:41;101644.00;;;17.90
5571;BMP180;2808;51.240;6.794;2022-07-22T00:30:10;101636.00;;;17.90
5571;BMP180;2808;51.240;6.794;2022-07-22T00:32:37;101636.00;;;17.80
5571;BMP180;2808;51.240;6.794;2022-07-22T00:35:06;101645.00;;;17.80
5571;BMP180;2808;51.240;6.794;2022-07-22T00:37:34;101643.00;;;17.80
5571;BMP180;2808;51.240;6.794;2022-07-22T00:40:01;101640.00;;;17.80
5571;BMP180;2808;51.240;6.794;2022-07-22T00:42:29;101634.00;;;17.80
5571;BMP180;2808;51.240;6.794;2022-07-22T00:44:58;101640.00;;;17.70
5571;BMP180;2808;51.240;6.794;2022-07-22T00:47:25;101641.00;;;17.80
5571;BMP180;2808;51.240;6.794;2022-07-22T00:49:53;101640.00;;;17.80
5571;BMP180;2808;51.240;6.794;2022-07-22T00:52:22;101639.00;;;17.80
5571;BMP180;2808;51.240;6.794;2022-07-22T00:54:50;101634.00;;;17.70
5571;BMP180;2808;51.240;6.794;2022-07-22T00:57:18;101640.00;;;17.70
5571;BMP180;2808;51.240;6.794;2022-07-22T00:59:45;101637.00;;;17.70
5571;BMP180;2808;51.240;6.794;2022-07-22T01:02:14;101632.00;;;17.80
5571;BMP180;2808;51.240;6.794;2022-07-22T01:04:42;101632.00;;;17.70
5571;BMP180;2808;51.240;6.794;2022-07-22T01:07:10;101625.00;;;17.70
5571;BMP180;2808;51.240;6.794;2022-07-22T01:09:37;101628.00;;;17.70
5571;BMP180;2808;51.240;6.794;2022-07-22T01:12:09;101631.00;;;17.80
5571;BMP180;2808;51.240;6.794;2022-07-22T01:14:37;101624.00;;;17.70
5571;BMP180;2808;51.240;6.794;2022-07-22T01:17:05;101622.00;;;17.70
5571;BMP180;2808;51.240;6.794;2022-07-22T01:19:36;101617.00;;;17.80
5571;BMP180;2808;51.240;6.794;2022-07-22T01:22:05;101628.00;;;17.80
5571;BMP180;2808;51.240;6.794;2022-07-22T01:24:33;101623.00;;;17.80
5571;BMP180;2808;51.240;6.794;2022-07-22T01:27:00;101620.00;;;17.80
5571;BMP180;2808;51.240;6.794;2022-07-22T01:29:28;101621.00;;;17.80
5571;BMP180;2808;51.240;6.794;2022-07-22T01:31:55;101623.00;;;17.80
5571;BMP180;2808;51.240;6.794;2022-07-22T01:34:24;101622.00;;;17.80
5571;BMP180;2808;51.240;6.794;2022-07-22T01:36:51;101620.00;;;17.80
5571;BMP180;2808;51.240;6.794;2022-07-22T01:39:20;101612.00;;;17.90
5571;BMP180;2808;51.240;6.794;2022-07-22T01:41:48;101622.00;;;17.90
5571;BMP180;2808;51.240;6.794;2022-07-22T01:44:15;101607.00;;;17.80
5571;BMP180;2808;51.240;6.794;2022-07-22T01:46:43;101608.00;;;17.80
5571;BMP180;2808;51.240;6.794;2022-07-22T01:49:10;101620.00;;;17.80
5571;BMP180;2808;51.240;6.794;2022-07-22T01:51:38;101613.00;;;17.90
5571;BMP180;2808;51.240;6.794;2022-07-22T01:54:05;101612.00;;;17.90
5571;BMP180;2808;51.240;6.794;2022-07-22T01:56:34;101614.00;;;17.90
5571;BMP180;2808;51.240;6.794;2022-07-22T01:59:02;101612.00;;;17.90
5571;BMP180;2808;51.240;6.794;2022-07-22T02:01:30;101605.00;;;17.80
5571;BMP180;2808;51.240;6.794;2022-07-22T02:03:57;101606.00;;;17.80
5571;BMP180;2808;51.240;6.794;2022-07-22T02:06:25;101608.00;;;17.80
5571;BMP180;2808;51.240;6.794;2022-07-22T02:08:52;101606.00;;;17.70
5571;BMP180;2808;51.240;6.794;2022-07-22T02:11:20;101599.00;;;17.70
5571;BMP180;2808;51.240;6.794;2022-07-22T02:13:49;101603.00;;;17.70
5571;BMP180;2808;51.240;6.794;2022-07-22T02:16:16;101604.00;;;17.70
5571;BMP180;2808;51.240;6.794;2022-07-22T02:18:43;101605.00;;;17.70
5571;BMP180;2808;51.240;6.794;2022-07-22T02:21:11;101609.00;;;17.60
5571;BMP180;2808;51.240;6.794;2022-07-22T02:23:38;101604.00;;;17.60
5571;BMP180;2808;51.240;6.794;2022-07-22T02:26:06;101595.00;;;17.70
5571;BMP180;2808;51.240;6.794;2022-07-22T02:28:33;101599.00;;;17.70
5571;BMP180;2808;51.240;6.794;2022-07-22T02:31:03;101599.00;;;17.70
5571;BMP180;2808;51.240;6.794;2022-07-22T02:33:30;101594.00;;;17.70
5571;BMP180;2808;51.240;6.794;2022-07-22T02:35:58;101597.00;;;17.60
5571;BMP180;2808;51.240;6.794;2022-07-22T02:38:25;101593.00;;;17.70
5571;BMP180;2808;51.240;6.794;2022-07-22T02:40:53;101604.00;;;17.70
5571;BMP180;2808;51.240;6.794;2022-07-22T02:43:21;101592.00;;;17.60
5571;BMP180;2808;51.240;6.794;2022-07-22T02:45:48;101591.00;;;17.50
5571;BMP180;2808;51.240;6.794;2022-07-22T02:48:17;101599.00;;;17.50
5571;BMP180;2808;51.240;6.794;2022-07-22T02:50:47;101593.00;;;17.60
5571;BMP180;2808;51.240;6.794;2022-07-22T02:53:15;101601.00;;;17.50
5571;BMP180;2808;51.240;6.794;2022-07-22T02:55:43;101606.00;;;17.50
5571;BMP180;2808;51.240;6.794;2022-07-22T02:58:10;101605.00;;;17.50
5571;BMP180;2808;51.240;6.794;2022-07-22T03:00:38;101605.00;;;17.50
5571;BMP180;2808;51.240;6.794;2022-07-22T03:03:05;101606.00;;;17.50
5571;BMP180;2808;51.240;6.794;2022-07-22T03:05:34;101616.00;;;17.50
5571;BMP180;2808;51.240;6.794;2022-07-22T03:08:02;101606.00;;;17.50
5571;BMP180;2808;51.240;6.794;2022-07-22T03:10:30;101602.00;;;17.50
5571;BMP180;2808;51.240;6.794;2022-07-22T03:12:57;101609.00;;;17.50
5571;BMP180;2808;51.240;6.794;2022-07-22T03:15:25;101616.00;;;17.50
5571;BMP180;2808;51.240;6.794;2022-07-22T03:17:52;101619.00;;;17.50
5571;BMP180;2808;51.240;6.794;2022-07-22T03:20:19;101613.00;;;17.40
5571;BMP180;2808;51.240;6.794;2022-07-22T03:22:48;101619.00;;;17.40
5571;BMP180;2808;51.240;6.794;2022-07-22T03:25:15;101622.00;;;17.40
5571;BMP180;2808;51.240;6.794;2022-07-22T03:27:43;101605.00;;;17.40
5571;BMP180;2808;51.240;6.794;2022-07-22T03:30:11;101615.00;;;17.30
5571;BMP180;2808;51.240;6.794;2022-07-22T03:32:38;101597.00;;;17.30
5571;BMP180;2808;51.240;6.794;2022-07-22T03:35:10;101605.00;;;17.30
5571;BMP180;2808;51.240;6.794;2022-07-22T03:37:38;101607.00;;;17.30
5571;BMP180;2808;51.240;6.794;2022-07-22T03:40:08;101604.00;;;17.30
5571;BMP180;2808;51.240;6.794;2022-07-22T03:42:36;101601.00;;;17.30
5571;BMP180;2808;51.240;6.794;2022-07-22T03:45:04;101606.00;;;17.40
5571;BMP180;2808;51.240;6.794;2022-07-22T03:47:31;101602.00;;;17.40
5571;BMP180;2808;51.240;6.794;2022-07-22T03:49:59;101603.00;;;17.30
5571;BMP180;2808;51.240;6.794;2022-07-22T03:52:28;101607.00;;;17.40
5571;BMP180;2808;51.240;6.794;2022-07-22T03:54:55;101604.00;;;17.40
5571;BMP180;2808;51.240;6.794;2022-07-22T03:57:24;101606.00;;;17.40
5571;BMP180;2808;51.240;6.794;2022-07-22T03:59:53;101601.00;;;17.40
5571;BMP180;2808;51.240;6.794;2022-07-22T04:02:20;101614.00;;;17.40
5571;BMP180;2808;51.240;6.794;2022-07-22T04:04:51;101604.00;;;17.40
5571;BMP180;2808;51.240;6.794;2022-07-22T04:07:18;101600.00;;;17.40
5571;BMP180;2808;51.240;6.794;2022-07-22T04:09:46;101603.00;;;17.30
5571;BMP180;2808;51.240;6.794;2022-07-22T04:12:14;101603.00;;;17.30
5571;BMP180;2808;51.240;6.794;2022-07-22T04:14:43;101588.00;;;17.30
5571;BMP180;2808;51.240;6.794;2022-07-22T04:17:10;101598.00;;;17.30
5571;BMP180;2808;51.240;6.794;2022-07-22T04:19:38;101591.00;;;17.30
5571;BMP180;2808;51.240;6.794;2022-07-22T04:22:05;101596.00;;;17.30
5571;BMP180;2808;51.240;6.794;2022-07-22T04:24:35;101592.00;;;17.30
5571;BMP180;2808;51.240;6.794;2022-07-22T04:27:03;101592.00;;;17.30
5571;BMP180;2808;51.240;6.794;2022-07-22T04:29:30;101596.00;;;17.20
5571;BMP180;2808;51.240;6.794;2022-07-22T04:32:01;101592.00;;;17.20
5571;BMP180;2808;51.240;6.794;2022-07-22T04:34:28;101585.00;;;17.10
5571;BMP180;2808;51.240;6.794;2022-07-22T04:36:56;101586.00;;;17.00
5571;BMP180;2808;51.240;6.794;2022-07-22T04:39:23;101586.00;;;17.10
5571;BMP180;2808;51.240;6.794;2022-07-22T04:41:51;101589.00;;;17.00
5571;BMP180;2808;51.240;6.794;2022-07-22T04:44:18;101588.00;;;17.00
5571;BMP180;2808;51.240;6.794;2022-07-22T04:46:46;101590.00;;;17.00
5571;BMP180;2808;51.240;6.794;2022-07-22T04:49:14;101591.00;;;17.10
5571;BMP180;2808;51.240;6.794;2022-07-22T04:51:43;101590.00;;;17.10
5571;BMP180;2808;51.240;6.794;2022-07-22T04:54:11;101597.00;;;17.10
5571;BMP180;2808;51.240;6.794;2022-07-22T04:56:38;101592.00;;;17.10
5571;BMP180;2808;51.240;6.794;2022-07-22T04:59:06;101606.00;;;17.20
5571;BMP180;2808;51.240;6.794;2022-07-22T05:01:33;101613.00;;;17.20
5571;BMP180;2808;51.240;6.794;2022-07-22T05:04:01;101607.00;;;17.20
5571;BMP180;2808;51.240;6.794;2022-07-22T05:06:29;101615.00;;;17.20
5571;BMP180;2808;51.240;6.794;2022-07-22T05:08:57;101603.00;;;17.30
5571;BMP180;2808;51.240;6.794;2022-07-22T05:11:24;101607.00;;;17.40
5571;BMP180;2808;51.240;6.794;2022-07-22T05:13:54;101606.00;;;17.40
5571;BMP180;2808;51.240;6.794;2022-07-22T05:16:22;101614.00;;;17.40
5571;BMP180;2808;51.240;6.794;2022-07-22T05:18:49;101601.00;;;17.40
5571;BMP180;2808;51.240;6.794;2022-07-22T05:21:17;101606.00;;;17.40
5571;BMP180;2808;51.240;6.794;2022-07-22T05:23:45;101601.00;;;17.40
5571;BMP180;2808;51.240;6.794;2022-07-22T05:26:13;101597.00;;;17.40
5571;BMP180;2808;51.240;6.794;2022-07-22T05:28:43;101599.00;;;17.40
5571;BMP180;2808;51.240;6.794;2022-07-22T05:31:11;101599.00;;;17.40
5571;BMP180;2808;51.240;6.794;2022-07-22T05:33:38;101592.00;;;17.50
5571;BMP180;2808;51.240;6.794;2022-07-22T05:36:06;101602.00;;;17.50
5571;BMP180;2808;51.240;6.794;2022-07-22T05:38:36;101595.00;;;17.50
5571;BMP180;2808;51.240;6.794;2022-07-22T05:41:05;101594.00;;;17.50
5571;BMP180;2808;51.240;6.794;2022-07-22T05:43:32;101592.00;;;17.50
5571;BMP180;2808;51.240;6.794;2022-07-22T05:46:00;101594.00;;;17.50
5571;BMP180;2808;51.240;6.794;2022-07-22T05:48:27;101588.00;;;17.40
5571;BMP180;2808;51.240;6.794;2022-07-22T05:50:55;101587.00;;;17.40
5571;BMP180;2808;51.240;6.794;2022-07-22T05:53:22;101586.00;;;17.40
5571;BMP180;2808;51.240;6.794;2022-07-22T05:55:50;101593.00;;;17.40
5571;BMP180;2808;51.240;6.794;2022-07-22T05:58:18;101597.00;;;17.50
5571;BMP180;2808;51.240;6.794;2022-07-22T06:00:46;101591.00;;;17.50
5571;BMP180;2808;51.240;6.794;2022-07-22T06:03:13;101591.00;;;17.50
5571;BMP180;2808;51.240;6.794;2022-07-22T06:05:41;101591.00;;;17.50
5571;BMP180;2808;51.240;6.794;2022-07-22T06:08:09;101589.00;;;17.60
5571;BMP180;2808;51.240;6.794;2022-07-22T06:10:36;101588.00;;;17.70
5571;BMP180;2808;51.240;6.794;2022-07-22T06:13:06;101593.00;;;17.70
5571;BMP180;2808;51.240;6.794;2022-07-22T06:15:37;101595.00;;;17.60
5571;BMP180;2808;51.240;6.794;2022-07-22T06:18:07;101585.00;;;17.60
5571;BMP180;2808;51.240;6.794;2022-07-22T06:20:35;101599.00;;;17.70
5571;BMP180;2808;51.240;6.794;2022-07-22T06:26:25;101600.00;;;17.70
5571;BMP180;2808;51.240;6.794;2022-07-22T06:28:53;101598.00;;;17.80
5571;BMP180;2808;51.240;6.794;2022-07-22T06:31:23;101595.00;;;17.90
5571;BMP180;2808;51.240;6.794;2022-07-22T06:34:24;101599.00;;;17.90
5571;BMP180;2808;51.240;6.794;2022-07-22T06:37:19;101601.00;;;17.90
5571;BMP180;2808;51.240;6.794;2022-07-22T06:40:09;101602.00;;;17.80
5571;BMP180;2808;51.240;6.794;2022-07-22T06:42:50;101596.00;;;17.80
5571;BMP180;2808;51.240;6.794;2022-07-22T06:48:40;101595.00;;;17.80
5571;BMP180;2808;51.240;6.794;2022-07-22T06:51:08;101601.00;;;17.90
5571;BMP180;2808;51.240;6.794;2022-07-22T06:53:36;101592.00;;;17.90
5571;BMP180;2808;51.240;6.794;2022-07-22T06:56:21;101591.00;;;18.00
5571;BMP180;2808;51.240;6.794;2022-07-22T06:58:49;101595.00;;;18.20
5571;BMP180;2808;51.240;6.794;2022-07-22T07:01:23;101590.00;;;18.30
5571;BMP180;2808;51.240;6.794;2022-07-22T07:03:54;101592.00;;;18.30
5571;BMP180;2808;51.240;6.794;2022-07-22T07:06:22;101586.00;;;18.10
5571;BMP180;2808;51.240;6.794;2022-07-22T07:08:50;101588.00;;;17.80
5571;BMP180;2808;51.240;6.794;2022-07-22T07:11:20;101592.00;;;17.70
5571;BMP180;2808;51.240;6.794;2022-07-22T07:13:51;101588.00;;;17.60
5571;BMP180;2808;51.240;6.794;2022-07-22T07:16:21;101588.00;;;17.60
5571;BMP180;2808;51.240;6.794;2022-07-22T07:19:29;101595.00;;;17.60
5571;BMP180;2808;51.240;6.794;2022-07-22T07:22:04;101592.00;;;17.60
5571;BMP180;2808;51.240;6.794;2022-07-22T07:24:37;101601.00;;;17.50
5571;BMP180;2808;51.240;6.794;2022-07-22T07:27:09;101588.00;;;17.60
5571;BMP180;2808;51.240;6.794;2022-07-22T07:29:40;101591.00;;;17.80
5571;BMP180;2808;51.240;6.794;2022-07-22T07:32:07;101588.00;;;17.70
5571;BMP180;2808;51.240;6.794;2022-07-22T07:34:41;101580.00;;;17.80
5571;BMP180;2808;51.240;6.794;2022-07-22T07:37:23;101588.00;;;17.90
5571;BMP180;2808;51.240;6.794;2022-07-22T07:40:14;101582.00;;;17.90
5571;BMP180;2808;51.240;6.794;2022-07-22T07:43:07;101586.00;;;17.90
5571;BMP180;2808;51.240;6.794;2022-07-22T07:45:51;101580.00;;;18.00
5571;BMP180;2808;51.240;6.794;2022-07-22T07:48:58;101581.00;;;18.00
5571;BMP180;2808;51.240;6.794;2022-07-22T09:03:20;101591.00;;;18.40
5571;BMP180;2808;51.240;6.794;2022-07-22T09:06:12;101596.00;;;18.50
5571;BMP180;2808;51.240;6.794;2022-07-22T09:12:06;101596.00;;;18.40
5571;BMP180;2808;51.240;6.794;2022-07-22T09:14:53;101588.00;;;18.40
5571;BMP180;2808;51.240;6.794;2022-07-22T09:17:26;101583.00;;;18.50
5571;BMP180;2808;51.240;6.794;2022-07-22T09:19:56;101578.00;;;18.40
5571;BMP180;2808;51.240;6.794;2022-07-22T09:22:32;101578.00;;;18.20
5571;BMP180;2808;51.240;6.794;2022-07-22T09:25:02;101582.00;;;18.30
5571;BMP180;2808;51.240;6.794;2022-07-22T09:27:55;101582.00;;;18.30
5571;BMP180;2808;51.240;6.794;2022-07-22T09:30:48;101583.00;;;18.30
5571;BMP180;2808;51.240;6.794;2022-07-22T09:33:30;101593.00;;;18.30
5571;BMP180;2808;51.240;6.794;2022-07-22T09:36:05;101588.00;;;18.30
5571;BMP180;2808;51.240;6.794;2022-07-22T09:38:32;101595.00;;;18.40
5571;BMP180;2808;51.240;6.794;2022-07-22T09:41:03;101593.00;;;18.50
5571;BMP180;2808;51.240;6.794;2022-07-22T09:43:35;101602.00;;;18.40
5571;BMP180;2808;51.240;6.794;2022-07-22T09:46:11;101593.00;;;18.40
5571;BMP180;2808;51.240;6.794;2022-07-22T09:48:43;101590.00;;;18.50
5571;BMP180;2808;51.240;6.794;2022-07-22T09:51:25;101598.00;;;18.60
5571;BMP180;2808;51.240;6.794;2022-07-22T09:53:53;101603.00;;;18.70
5571;BMP180;2808;51.240;6.794;2022-07-22T09:56:21;101596.00;;;18.80
5571;BMP180;2808;51.240;6.794;2022-07-22T09:58:51;101590.00;;;19.00
5571;BMP180;2808;51.240;6.794;2022-07-22T10:01:19;101591.00;;;19.10
5571;BMP180;2808;51.240;6.794;2022-07-22T10:03:51;101575.00;;;19.20
5571;BMP180;2808;51.240;6.794;2022-07-22T10:06:22;101573.00;;;19.40
5571;BMP180;2808;51.240;6.794;2022-07-22T10:08:51;101571.00;;;19.80
5571;BMP180;2808;51.240;6.794;2022-07-22T10:11:19;101565.00;;;20.00
5571;BMP180;2808;51.240;6.794;2022-07-22T10:13:54;101567.00;;;19.70
5571;BMP180;2808;51.240;6.794;2022-07-22T10:16:36;101560.00;;;19.90
5571;BMP180;2808;51.240;6.794;2022-07-22T10:19:08;101563.00;;;20.10
5571;BMP180;2808;51.240;6.794;2022-07-22T10:27:58;101545.00;;;20.70
5571;BMP180;2808;51.240;6.794;2022-07-22T10:30:38;101534.00;;;21.00
5571;BMP180;2808;51.240;6.794;2022-07-22T10:33:09;101539.00;;;21.30
5571;BMP180;2808;51.240;6.794;2022-07-22T10:39:12;101526.00;;;20.90
5571;BMP180;2808;51.240;6.794;2022-07-22T10:41:43;101526.00;;;21.30
5571;BMP180;2808;51.240;6.794;2022-07-22T10:50:40;101530.00;;;21.50
5571;BMP180;2808;51.240;6.794;2022-07-22T10:53:38;101521.00;;;21.50
5571;BMP180;2808;51.240;6.794;2022-07-22T10:56:17;101527.00;;;21.50
5571;BMP180;2808;51.240;6.794;2022-07-22T10:59:10;101537.00;;;21.60
5571;BMP180;2808;51.240;6.794;2022-07-22T11:01:59;101526.00;;;21.60
5571;BMP180;2808;51.240;6.794;2022-07-22T11:05:02;101537.00;;;21.80
5571;BMP180;2808;51.240;6.794;2022-07-22T11:07:59;101545.00;;;21.80
5571;BMP180;2808;51.240;6.794;2022-07-22T11:11:03;101533.00;;;22.00
5571;BMP180;2808;51.240;6.794;2022-07-22T11:14:19;101534.00;;;21.90
5571;BMP180;2808;51.240;6.794;2022-07-22T11:17:06;101528.00;;;22.10
5571;BMP180;2808;51.240;6.794;2022-07-22T11:20:06;101526.00;;;22.30
5571;BMP180;2808;51.240;6.794;2022-07-22T11:22:52;101514.00;;;22.30
5571;BMP180;2808;51.240;6.794;2022-07-22T11:25:28;101522.00;;;22.50
5571;BMP180;2808;51.240;6.794;2022-07-22T11:28:04;101518.00;;;22.70
5571;BMP180;2808;51.240;6.794;2022-07-22T11:30:35;101505.00;;;22.60
5571;BMP180;2808;51.240;6.794;2022-07-22T11:33:05;101504.00;;;22.70
5571;BMP180;2808;51.240;6.794;2022-07-22T11:35:37;101518.00;;;22.60
5571;BMP180;2808;51.240;6.794;2022-07-22T11:38:16;101511.00;;;22.40
5571;BMP180;2808;51.240;6.794;2022-07-22T11:40:47;101502.00;;;22.40
5571;BMP180;2808;51.240;6.794;2022-07-22T11:43:25;101516.00;;;22.30
5571;BMP180;2808;51.240;6.794;2022-07-22T11:46:00;101508.00;;;22.20
5571;BMP180;2808;51.240;6.794;2022-07-22T11:48:29;101510.00;;;22.40
5571;BMP180;2808;51.240;6.794;2022-07-22T11:51:00;101502.00;;;22.60
5571;BMP180;2808;51.240;6.794;2022-07-22T11:53:30;101508.00;;;22.80
5571;BMP180;2808;51.240;6.794;2022-07-22T11:55:58;101502.00;;;22.90
5571;BMP180;2808;51.240;6.794;2022-07-22T11:58:40;101494.00;;;23.00
5571;BMP180;2808;51.240;6.794;2022-07-22T12:01:17;101492.00;;;23.10
5571;BMP180;2808;51.240;6.794;2022-07-22T12:03:48;101491.00;;;23.00
5571;BMP180;2808;51.240;6.794;2022-07-22T12:06:24;101484.00;;;23.00
5571;BMP180;2808;51.240;6.794;2022-07-22T12:09:14;101483.00;;;23.10
5571;BMP180;2808;51.240;6.794;2022-07-22T12:19:02;101476.00;;;22.60
5571;BMP180;2808;51.240;6.794;2022-07-22T12:21:33;101472.00;;;22.60
5571;BMP180;2808;51.240;6.794;2022-07-22T12:24:03;101465.00;;;22.60
5571;BMP180;2808;51.240;6.794;2022-07-22T12:26:46;101477.00;;;22.60
5571;BMP180;2808;51.240;6.794;2022-07-22T12:29:15;101469.00;;;22.50
5571;BMP180;2808;51.240;6.794;2022-07-22T12:31:47;101471.00;;;22.60
5571;BMP180;2808;51.240;6.794;2022-07-22T12:34:57;101465.00;;;22.70
5571;BMP180;2808;51.240;6.794;2022-07-22T12:37:30;101470.00;;;22.90
5571;BMP180;2808;51.240;6.794;2022-07-22T12:40:00;101460.00;;;22.90
5571;BMP180;2808;51.240;6.794;2022-07-22T12:42:30;101454.00;;;23.00
5571;BMP180;2808;51.240;6.794;2022-07-22T12:45:04;101452.00;;;23.00
5571;BMP180;2808;51.240;6.794;2022-07-22T12:47:48;101456.00;;;23.10
5571;BMP180;2808;51.240;6.794;2022-07-22T12:53:32;101455.00;;;23.10
5571;BMP180;2808;51.240;6.794;2022-07-22T12:56:02;101449.00;;;23.20
5571;BMP180;2808;51.240;6.794;2022-07-22T12:58:33;101432.00;;;23.20
5571;BMP180;2808;51.240;6.794;2022-07-22T13:01:03;101444.00;;;23.20
5571;BMP180;2808;51.240;6.794;2022-07-22T13:03:31;101436.00;;;23.20
5571;BMP180;2808;51.240;6.794;2022-07-22T13:06:01;101448.00;;;23.30
5571;BMP180;2808;51.240;6.794;2022-07-22T13:08:34;101441.00;;;23.10
5571;BMP180;2808;51.240;6.794;2022-07-22T13:11:04;101433.00;;;23.10
5571;BMP180;2808;51.240;6.794;2022-07-22T13:13:39;101422.00;;;22.70
5571;BMP180;2808;51.240;6.794;2022-07-22T13:16:13;101420.00;;;22.70
5571;BMP180;2808;51.240;6.794;2022-07-22T13:18:41;101435.00;;;22.80
5571;BMP180;2808;51.240;6.794;2022-07-22T13:21:13;101436.00;;;22.90
5571;BMP180;2808;51.240;6.794;2022-07-22T13:24:00;101427.00;;;23.10
5571;BMP180;2808;51.240;6.794;2022-07-22T13:26:28;101430.00;;;23.40
5571;BMP180;2808;51.240;6.794;2022-07-22T13:29:00;101427.00;;;23.60
5571;BMP180;2808;51.240;6.794;2022-07-22T13:31:29;101422.00;;;23.80
5571;BMP180;2808;51.240;6.794;2022-07-22T13:33:57;101423.00;;;23.80
5571;BMP180;2808;51.240;6.794;2022-07-22T13:36:26;101423.00;;;23.80
5571;BMP180;2808;51.240;6.794;2022-07-22T13:39:00;101425.00;;;23.50
5571;BMP180;2808;51.240;6.794;2022-07-22T13:41:31;101432.00;;;23.30
5571;BMP180;2808;51.240;6.794;2022-07-22T13:43:59;101423.00;;;23.00
5571;BMP180;2808;51.240;6.794;2022-07-22T13:46:34;101433.00;;;22.50
5571;BMP180;2808;51.240;6.794;2022-07-22T13:49:05;101431.00;;;22.40
5571;BMP180;2808;51.240;6.794;2022-07-22T13:51:42;101429.00;;;22.50
5571;BMP180;2808;51.240;6.794;2022-07-22T13:57:29;101415.00;;;22.50
5571;BMP180;2808;51.240;6.794;2022-07-22T13:59:57;101413.00;;;22.40
5571;BMP180;2808;51.240;6.794;2022-07-22T14:02:28;101407.00;;;22.30
5571;BMP180;2808;51.240;6.794;2022-07-22T14:04:56;101415.00;;;22.30
5571;BMP180;2808;51.240;6.794;2022-07-22T14:07:26;101410.00;;;22.30
5571;BMP180;2808;51.240;6.794;2022-07-22T14:10:03;101407.00;;;22.40
5571;BMP180;2808;51.240;6.794;2022-07-22T14:12:35;101406.00;;;22.40
5571;BMP180;2808;51.240;6.794;2022-07-22T14:15:04;101408.00;;;22.40
5571;BMP180;2808;51.240;6.794;2022-07-22T14:17:33;101412.00;;;22.50
5571;BMP180;2808;51.240;6.794;2022-07-22T14:20:02;101415.00;;;22.70
5571;BMP180;2808;51.240;6.794;2022-07-22T14:22:33;101409.00;;;22.80
5571;BMP180;2808;51.240;6.794;2022-07-22T14:25:05;101408.00;;;22.90
5571;BMP180;2808;51.240;6.794;2022-07-22T14:27:37;101409.00;;;22.90
5571;BMP180;2808;51.240;6.794;2022-07-22T14:30:07;101408.00;;;22.80
5571;BMP180;2808;51.240;6.794;2022-07-22T14:32:35;101399.00;;;22.80
5571;BMP180;2808;51.240;6.794;2022-07-22T14:35:03;101408.00;;;22.90
5571;BMP180;2808;51.240;6.794;2022-07-22T14:37:32;101412.00;;;23.10
5571;BMP180;2808;51.240;6.794;2022-07-22T14:40:00;101401.00;;;23.40
5571;BMP180;2808;51.240;6.794;2022-07-22T14:42:30;101398.00;;;23.50
5571;BMP180;2808;51.240;6.794;2022-07-22T14:45:00;101401.00;;;23.60
5571;BMP180;2808;51.240;6.794;2022-07-22T14:47:29;101393.00;;;23.60
5571;BMP180;2808;51.240;6.794;2022-07-22T14:49:57;101388.00;;;23.50
5571;BMP180;2808;51.240;6.794;2022-07-22T14:52:24;101399.00;;;23.40
5571;BMP180;2808;51.240;6.794;2022-07-22T14:54:52;101395.00;;;23.30
5571;BMP180;2808;51.240;6.794;2022-07-22T14:57:22;101387.00;;;23.20
5571;BMP180;2808;51.240;6.794;2022-07-22T14:59:55;101382.00;;;23.10
5571;BMP180;2808;51.240;6.794;2022-07-22T15:02:23;101386.00;;;23.10
5571;BMP180;2808;51.240;6.794;2022-07-22T15:04:51;101379.00;;;23.20
5571;BMP180;2808;51.240;6.794;2022-07-22T15:07:18;101388.00;;;23.20
5571;BMP180;2808;51.240;6.794;2022-07-22T15:09:46;101384.00;;;23.30
5571;BMP180;2808;51.240;6.794;2022-07-22T15:12:15;101379.00;;;23.40
5571;BMP180;2808;51.240;6.794;2022-07-22T15:14:44;101382.00;;;23.60
5571;BMP180;2808;51.240;6.794;2022-07-22T15:17:18;101376.00;;;23.60
5571;BMP180;2808;51.240;6.794;2022-07-22T15:19:48;101372.00;;;23.70
5571;BMP180;2808;51.240;6.794;2022-07-22T15:22:16;101373.00;;;23.80
5571;BMP180;2808;51.240;6.794;2022-07-22T15:24:51;101367.00;;;23.70
5571;BMP180;2808;51.240;6.794;2022-07-22T15:27:20;101367.00;;;23.60
5571;BMP180;2808;51.240;6.794;2022-07-22T15:29:47;101372.00;;;23.60
5571;BMP180;2808;51.240;6.794;2022-07-22T15:32:19;101363.00;;;23.60
5571;BMP180;2808;51.240;6.794;2022-07-22T15:34:50;101362.00;;;23.60
5571;BMP180;2808;51.240;6.794;2022-07-22T15:37:20;101352.00;;;23.50
5571;BMP180;2808;51.240;6.794;2022-07-22T15:39:52;101357.00;;;23.40
5571;BMP180;2808;51.240;6.794;2022-07-22T15:42:22;101350.00;;;23.40
5571;BMP180;2808;51.240;6.794;2022-07-22T15:44:53;101344.00;;;23.40
5571;BMP180;2808;51.240;6.794;2022-07-22T15:47:23;101336.00;;;23.40
5571;BMP180;2808;51.240;6.794;2022-07-22T15:49:58;101334.00;;;23.30
5571;BMP180;2808;51.240;6.794;2022-07-22T15:52:25;101335.00;;;23.30
5571;BMP180;2808;51.240;6.794;2022-07-22T15:54:53;101332.00;;;23.30
5571;BMP180;2808;51.240;6.794;2022-07-22T15:57:20;101322.00;;;23.30
5571;BMP180;2808;51.240;6.794;2022-07-22T16:00:15;101322.00;;;23.40
5571;BMP180;2808;51.240;6.794;2022-07-22T16:02:52;101331.00;;;23.40
5571;BMP180;2808;51.240;6.794;2022-07-22T16:05:22;101321.00;;;23.30
5571;BMP180;2808;51.240;6.794;2022-07-22T16:07:49;101318.00;;;23.40
5571;BMP180;2808;51.240;6.794;2022-07-22T16:10:17;101312.00;;;23.30
5571;BMP180;2808;51.240;6.794;2022-07-22T16:13:14;101310.00;;;23.30
5571;BMP180;2808;51.240;6.794;2022-07-22T16:16:33;101306.00;;;23.30
5571;BMP180;2808;51.240;6.794;2022-07-22T16:19:22;101295.00;;;23.20
5571;BMP180;2808;51.240;6.794;2022-07-22T16:21:53;101296.00;;;23.20
5571;BMP180;2808;51.240;6.794;2022-07-22T16:24:24;101296.00;;;23.00
5571;BMP180;2808;51.240;6.794;2022-07-22T16:26:55;101279.00;;;22.90
5571;BMP180;2808;51.240;6.794;2022-07-22T16:29:27;101278.00;;;22.80
5571;BMP180;2808;51.240;6.794;2022-07-22T16:32:17;101283.00;;;22.80
5571;BMP180;2808;51.240;6.794;2022-07-22T16:34:50;101286.00;;;22.80
5571;BMP180;2808;51.240;6.794;2022-07-22T16:37:27;101286.00;;;22.80
5571;BMP180;2808;51.240;6.794;2022-07-22T16:39:58;101288.00;;;22.80